Time;durP1;ratioP1;P1;durP2;ratioP2;P2;SDS_P1;SDS_P2;PMS_P1;PMS_P2;Temp;Humidity;BMP_temperature;BMP_pressure;BME280_temperature;BME280_humidity;BME280_pressure;Samples;Min_cycle;Max_cycle;Signal;HPM_P1;HPM_P2
2022/06/24 00:02:08;;;;;;;11.98;8.60;;;24.40;99.90;;;;;;5112551;28;20557;-69
2022/06/24 00:04:34;;;;;;;10.38;8.18;;;23.30;99.90;;;;;;5112461;28;20043;-69
2022/06/24 00:06:59;;;;;;;11.80;7.90;;;23.40;99.90;;;;;;5112625;28;20482;-69
2022/06/24 00:09:27;;;;;;;13.52;9.82;;;24.40;99.90;;;;;;5110416;28;20405;-69
2022/06/24 00:12:06;;;;;;;13.85;8.45;;;23.80;99.90;;;;;;5111264;28;20045;-69
2022/06/24 00:14:33;;;;;;;13.98;9.30;;;23.00;99.90;;;;;;5111094;28;20520;-69
2022/06/24 00:17:02;;;;;;;13.52;10.45;;;24.40;99.90;;;;;;5111027;28;20044;-69
2022/06/24 00:19:31;;;;;;;15.07;10.00;;;23.10;99.90;;;;;;5111130;28;20031;-69
2022/06/24 00:21:57;;;;;;;13.00;8.80;;;22.90;99.90;;;;;;5111311;28;20040;-68
2022/06/24 00:24:22;;;;;;;13.63;8.65;;;24.00;99.90;;;;;;5092909;28;20568;-69
2022/06/24 00:26:48;;;;;;;16.65;8.95;;;24.00;99.90;;;;;;5111161;28;20177;-70
2022/06/24 00:29:17;;;;;;;14.35;8.57;;;22.80;99.90;;;;;;5111674;28;20085;-69
2022/06/24 00:32:05;;;;;;;11.18;7.85;;;23.80;99.90;;;;;;5112279;28;20120;-69
2022/06/24 00:34:35;;;;;;;10.63;8.90;;;22.80;99.90;;;;;;5112157;28;20035;-69
2022/06/24 00:37:23;;;;;;;10.50;8.68;;;22.70;99.90;;;;;;5111975;28;20040;-69
2022/06/24 00:39:50;;;;;;;14.38;9.27;;;22.60;99.90;;;;;;5111564;28;20039;-69
2022/06/24 00:42:16;;;;;;;11.07;8.65;;;23.20;99.90;;;;;;5112213;28;20382;-69
2022/06/24 00:44:51;;;;;;;12.52;9.00;;;24.00;99.90;;;;;;5110775;28;20103;-69
2022/06/24 00:47:17;;;;;;;10.88;7.85;;;22.90;99.90;;;;;;5110615;28;20047;-70
2022/06/24 00:49:45;;;;;;;10.45;7.40;;;22.50;99.90;;;;;;5111279;28;20118;-69
2022/06/24 00:52:11;;;;;;;12.15;6.60;;;22.40;99.90;;;;;;5110669;28;20058;-71
2022/06/24 00:54:37;;;;;;;7.97;6.35;;;22.20;99.90;;;;;;5110825;28;20035;-69
2022/06/24 00:57:03;;;;;;;7.65;6.63;;;22.40;99.90;;;;;;5110739;28;20112;-69
2022/06/24 00:59:34;;;;;;;8.57;5.43;;;22.50;99.90;;;;;;5110183;28;20497;-69
2022/06/24 01:02:05;;;;;;;7.68;5.50;;;22.70;99.90;;;;;;5111853;28;20497;-69
2022/06/24 01:04:32;;;;;;;7.50;5.60;;;;;;;;;;5110921;28;20058;-69
2022/06/24 01:06:58;;;;;;;7.57;5.82;;;;;;;;;;5111764;28;20383;-71
2022/06/24 01:09:24;;;;;;;7.55;5.10;;;;;;;;;;5109884;28;20039;-71
2022/06/24 01:11:51;;;;;;;5.78;4.90;;;;;;;;;;5110478;28;20085;-70
2022/06/24 01:14:17;;;;;;;8.10;5.18;;;;;;;;;;5093789;28;20036;-69
2022/06/24 01:16:43;;;;;;;7.35;4.93;;;;;;;;;;5111694;28;20493;-69
2022/06/24 01:19:12;;;;;;;5.47;4.50;;;;;;;;;;5109963;28;20366;-69
2022/06/24 01:21:39;;;;;;;5.35;4.03;;;;;;;;;;5112092;28;20039;-69
2022/06/24 01:24:05;;;;;;;4.65;4.25;;;;;;;;;;5110898;28;20050;-69
2022/06/24 01:26:32;;;;;;;5.18;4.57;;;;;;;;;;5110794;28;20440;-69
2022/06/24 01:28:58;;;;;;;6.15;3.97;;;;;;;;;;5110792;28;20492;-70
2022/06/24 01:31:23;;;;;;;6.10;4.35;;;;;;;;;;5113354;28;20086;-70
2022/06/24 01:33:49;;;;;;;8.65;4.38;;;21.50;99.90;;;;;;5114070;28;20071;-70
2022/06/24 01:36:15;;;;;;;4.45;4.05;;;21.60;99.90;;;;;;5114058;28;20509;-69
2022/06/24 01:38:40;;;;;;;5.38;4.18;;;20.50;99.90;;;;;;5115341;28;20040;-69
2022/06/24 01:41:06;;;;;;;4.82;4.20;;;21.30;99.90;;;;;;5113151;28;20063;-69
2022/06/24 01:43:31;;;;;;;6.10;4.47;;;21.20;99.90;;;;;;5113899;28;20047;-69
2022/06/24 01:45:57;;;;;;;7.03;4.90;;;21.40;99.90;;;;;;5114055;28;20039;-69
2022/06/24 01:48:22;;;;;;;4.78;4.28;;;21.80;99.90;;;;;;5113754;28;20511;-69
2022/06/24 01:50:48;;;;;;;7.22;4.22;;;21.10;99.90;;;;;;5114218;28;20038;-70
2022/06/24 01:53:13;;;;;;;6.80;4.10;;;21.30;99.80;;;;;;5113792;28;20037;-69
2022/06/24 01:55:39;;;;;;;7.40;4.60;;;21.50;99.90;;;;;;5113901;28;20039;-69
2022/06/24 01:58:05;;;;;;;5.90;5.13;;;21.40;99.90;;;;;;5114759;28;20044;-69
2022/06/24 02:00:30;;;;;;;7.35;4.80;;;21.30;99.70;;;;;;5112852;28;20043;-69
2022/06/24 02:02:56;;;;;;;5.82;4.55;;;21.90;99.70;;;;;;5096535;28;20122;-69
2022/06/24 02:05:26;;;;;;;11.80;4.53;;;21.40;99.60;;;;;;5114968;28;20088;-69
2022/06/24 02:07:51;;;;;;;5.90;4.15;;;21.50;99.60;;;;;;5113516;28;20036;-69
2022/06/24 02:15:46;;;;;;;6.28;4.07;;;21.20;99.40;;;;;;5114493;28;20541;-69
2022/06/24 02:18:12;;;;;;;4.68;4.13;;;21.30;99.90;;;;;;5096203;28;20071;-69
2022/06/24 02:20:37;;;;;;;8.18;4.70;;;22.60;99.90;;;;;;5113663;28;20035;-69
2022/06/24 02:23:03;;;;;;;9.38;4.32;;;22.30;99.90;;;;;;5113414;28;20401;-69
2022/06/24 02:25:29;;;;;;;5.13;4.10;;;21.30;99.90;;;;;;5113133;28;20071;-69
2022/06/24 02:27:54;;;;;;;4.68;4.28;;;21.80;99.90;;;;;;5112977;28;20036;-69
2022/06/24 02:30:20;;;;;;;4.75;4.25;;;21.30;99.90;;;;;;5112113;28;20057;-69
2022/06/24 02:32:45;;;;;;;6.97;4.85;;;21.40;99.90;;;;;;5114128;28;20410;-70
2022/06/24 02:35:11;;;;;;;5.57;5.07;;;22.70;99.90;;;;;;5114516;28;20039;-69
2022/06/24 02:37:37;;;;;;;6.22;4.57;;;21.20;99.90;;;;;;5096182;28;20039;-69
2022/06/24 02:40:45;;;;;;;5.25;4.38;;;22.30;99.90;;;;;;5113526;28;20496;-69
2022/06/24 02:42:54;;;;;;;5.05;4.60;;;21.00;99.90;;;;;;5112557;28;20048;-68
2022/06/24 02:45:20;;;;;;;7.38;4.65;;;22.20;99.90;;;;;;5113020;28;20047;-69
2022/06/24 02:47:45;;;;;;;5.55;4.53;;;21.00;99.90;;;;;;5095584;28;20035;-69
2022/06/24 02:50:11;;;;;;;4.53;3.88;;;20.70;99.90;;;;;;5112046;28;20172;-69
2022/06/24 02:52:36;;;;;;;7.88;4.28;;;21.70;99.90;;;;;;5112920;28;20039;-69
2022/06/24 02:55:02;;;;;;;7.38;4.05;;;20.80;99.90;;;;;;5112781;28;20039;-69
2022/06/24 02:57:28;;;;;;;5.72;4.00;;;20.70;99.90;;;;;;5113759;28;20122;-70
2022/06/24 02:59:53;;;;;;;4.93;4.15;;;21.00;99.90;;;;;;5111664;28;20035;-69
2022/06/24 03:02:19;;;;;;;5.50;4.13;;;20.90;99.90;;;;;;5112714;28;20039;-69
2022/06/24 03:04:44;;;;;;;5.63;3.85;;;20.90;99.90;;;;;;5113785;28;20481;-69
2022/06/24 03:07:10;;;;;;;5.10;4.03;;;20.80;99.90;;;;;;5113614;28;20035;-69
2022/06/24 03:09:35;;;;;;;4.65;3.60;;;21.30;99.90;;;;;;5111499;28;20097;-69
2022/06/24 03:12:01;;;;;;;9.75;4.05;;;21.50;99.90;;;;;;5112161;28;20043;-69
2022/06/24 03:14:26;;;;;;;5.10;3.60;;;20.80;99.90;;;;;;5112347;28;20508;-69
2022/06/24 03:16:52;;;;;;;5.18;4.13;;;20.80;99.90;;;;;;5095017;28;20067;-69
2022/06/24 03:19:17;;;;;;;5.03;3.72;;;20.80;99.90;;;;;;5111272;28;20043;-69
2022/06/24 03:21:43;;;;;;;4.93;3.90;;;20.80;99.90;;;;;;5113394;28;20043;-69
2022/06/24 03:24:09;;;;;;;8.35;3.90;;;22.20;99.90;;;;;;5112227;28;20036;-69
2022/06/24 03:26:34;;;;;;;5.32;3.30;;;21.80;99.90;;;;;;5111781;28;20035;-69
2022/06/24 03:29:00;;;;;;;5.32;3.90;;;20.70;99.90;;;;;;5111200;28;20409;-69
2022/06/24 03:31:25;;;;;;;4.30;3.90;;;21.50;99.90;;;;;;5112991;28;20039;-70
2022/06/24 03:33:51;;;;;;;5.40;4.18;;;21.30;99.90;;;;;;5113312;28;20217;-69
2022/06/24 03:36:16;;;;;;;4.53;4.10;;;21.10;99.90;;;;;;5111688;28;20035;-69
2022/06/24 03:38:42;;;;;;;7.93;4.45;;;21.00;99.90;;;;;;5113027;28;20032;-69
2022/06/24 03:41:08;;;;;;;5.20;4.70;;;20.70;99.90;;;;;;5111174;28;20064;-69
2022/06/24 03:43:33;;;;;;;6.68;4.03;;;21.60;99.90;;;;;;5094624;28;20477;-71
2022/06/24 03:46:00;;;;;;;5.95;4.95;;;22.60;99.90;;;;;;5111569;28;20040;-72
2022/06/24 03:48:26;;;;;;;7.45;4.85;;;20.90;99.90;;;;;;5113064;28;20075;-71
2022/06/24 03:50:51;;;;;;;7.38;4.20;;;21.00;99.90;;;;;;5111730;28;20067;-71
2022/06/24 03:53:17;;;;;;;4.70;4.28;;;22.00;99.90;;;;;;5112742;28;20031;-72
2022/06/24 03:55:50;;;;;;;7.43;4.63;;;21.40;99.90;;;;;;5111948;28;20531;-71
2022/06/24 03:58:19;;;;;;;6.55;4.65;;;21.10;99.90;;;;;;5111229;28;20039;-72
2022/06/24 04:00:45;;;;;;;6.75;5.82;;;21.20;99.90;;;;;;5110965;28;20631;-71
2022/06/24 04:03:11;;;;;;;7.85;5.60;;;21.20;99.90;;;;;;5111233;28;20047;-71
2022/06/24 04:05:37;;;;;;;10.10;6.78;;;21.40;99.90;;;;;;5112591;27;20031;-71
2022/06/24 04:08:03;;;;;;;11.50;8.15;;;21.40;99.90;;;;;;5111315;28;20088;-71
2022/06/24 04:10:29;;;;;;;15.73;10.20;;;21.30;99.90;;;;;;5110375;28;20058;-72
2022/06/24 04:12:54;;;;;;;11.05;8.68;;;22.80;99.90;;;;;;5111354;28;20027;-71
2022/06/24 04:15:20;;;;;;;12.60;9.40;;;21.40;99.90;;;;;;5111124;28;20036;-72
2022/06/24 04:17:47;;;;;;;15.25;11.35;;;21.40;99.90;;;;;;5111041;28;20046;-71
2022/06/24 04:20:15;;;;;;;13.93;12.27;;;22.80;99.90;;;;;;5110416;28;20058;-70
2022/06/24 04:22:41;;;;;;;19.63;13.95;;;22.30;99.90;;;;;;5110516;28;20514;-73
2022/06/24 04:25:08;;;;;;;28.88;17.13;;;23.10;99.90;;;;;;5112563;28;20039;-72
2022/06/24 04:27:33;;;;;;;22.83;14.27;;;21.40;99.90;;;;;;5111036;28;20039;-71
2022/06/24 04:30:05;;;;;;;22.02;14.52;;;22.00;99.90;;;;;;5110183;28;20053;-71
2022/06/24 04:32:30;;;;;;;19.42;13.48;;;21.20;99.90;;;;;;5110948;28;20554;-72
2022/06/24 04:34:56;;;;;;;17.95;11.65;;;21.10;99.90;;;;;;5110814;28;20035;-71
2022/06/24 04:37:22;;;;;;;13.43;9.60;;;22.20;99.90;;;;;;5111050;28;20114;-72
2022/06/24 04:39:47;;;;;;;11.73;8.00;;;20.90;99.90;;;;;;5110133;28;20032;-73
2022/06/24 04:42:13;;;;;;;10.13;6.45;;;20.70;99.90;;;;;;5112205;28;20051;-71
2022/06/24 04:44:38;;;;;;;15.77;6.72;;;22.40;99.90;;;;;;5111024;28;20040;-72
2022/06/24 04:47:05;;;;;;;14.68;6.50;;;20.40;99.90;;;;;;5110662;28;20035;-72
2022/06/24 04:49:32;;;;;;;11.45;6.53;;;20.60;99.90;;;;;;5093222;28;20040;-71
2022/06/24 04:51:58;;;;;;;10.57;6.53;;;20.30;99.90;;;;;;5110737;28;20044;-72
2022/06/24 04:54:23;;;;;;;8.98;6.22;;;20.70;99.90;;;;;;5094022;28;20031;-71
2022/06/24 04:56:49;;;;;;;7.75;4.82;;;21.10;99.90;;;;;;5111030;28;20554;-71
2022/06/24 04:59:15;;;;;;;5.93;4.05;;;21.30;99.90;;;;;;5110134;28;20036;-72
2022/06/24 05:01:41;;;;;;;8.73;3.97;;;21.00;99.90;;;;;;5110972;28;20130;-71
2022/06/24 05:04:06;;;;;;;7.53;3.45;;;21.40;99.90;;;;;;5110797;28;20078;-71
2022/06/24 05:06:32;;;;;;;8.63;3.92;;;20.60;99.90;;;;;;5113004;28;20074;-70
2022/06/24 05:08:57;;;;;;;5.10;3.13;;;20.40;99.90;;;;;;5115608;28;20119;-69
2022/06/24 05:11:23;;;;;;;5.53;3.40;;;20.50;99.90;;;;;;5114447;28;20493;-69
2022/06/24 05:13:49;;;;;;;7.43;3.40;;;21.50;99.90;;;;;;5097598;28;20045;-69
2022/06/24 05:16:15;;;;;;;6.63;3.15;;;20.80;99.90;;;;;;5115821;28;20038;-69
2022/06/24 05:18:41;;;;;;;6.60;3.45;;;20.80;99.90;;;;;;5114364;28;20386;-69
2022/06/24 05:21:06;;;;;;;7.38;3.78;;;20.60;99.90;;;;;;5115125;28;20043;-69
2022/06/24 05:23:32;;;;;;;6.63;3.25;;;21.00;99.90;;;;;;5095876;28;20047;-71
2022/06/24 05:25:57;;;;;;;6.35;3.58;;;20.50;99.90;;;;;;5115619;28;20043;-71
2022/06/24 05:28:23;;;;;;;4.72;3.45;;;20.50;99.90;;;;;;5114316;28;20039;-72
2022/06/24 05:30:58;;;;;;;4.90;3.40;;;20.40;99.90;;;;;;5114652;28;20036;-72
2022/06/24 05:33:24;;;;;;;6.22;3.58;;;21.10;99.90;;;;;;5114401;28;20097;-71
2022/06/24 05:35:54;;;;;;;10.75;4.00;;;21.20;99.90;;;;;;5114352;28;20439;-71
2022/06/24 05:38:21;;;;;;;7.50;3.28;;;21.10;99.90;;;;;;5114008;28;20071;-72
2022/06/24 05:40:51;;;;;;;4.03;3.50;;;21.10;99.90;;;;;;5113427;28;20054;-69
2022/06/24 05:43:20;;;;;;;5.05;3.53;;;20.70;99.90;;;;;;5113853;28;20089;-70
2022/06/24 05:45:46;;;;;;;6.75;3.83;;;20.70;99.90;;;;;;5115328;28;20036;-69
2022/06/24 05:48:15;;;;;;;7.38;3.75;;;20.40;99.90;;;;;;5097082;28;20447;-71
2022/06/24 05:50:41;;;;;;;5.43;3.72;;;20.70;99.90;;;;;;5096115;28;20083;-70
2022/06/24 05:55:58;;;;;;;7.18;3.63;;;20.60;99.90;;;;;;5114932;28;20094;-71
2022/06/24 05:58:27;;;;;;;6.20;3.42;;;21.10;99.90;;;;;;5097732;28;20080;-72
2022/06/24 06:00:54;;;;;;;5.30;3.05;;;20.50;99.90;;;;;;5112844;28;20564;-69
2022/06/24 06:03:21;;;;;;;5.97;3.25;;;20.40;99.90;;;;;;5096582;28;20127;-70
2022/06/24 06:05:48;;;;;;;4.38;3.45;;;20.50;99.90;;;;;;5113599;28;20043;-69
2022/06/24 06:08:14;;;;;;;5.97;3.33;;;21.50;99.90;;;;;;5113927;28;20394;-70
2022/06/24 06:10:39;;;;;;;6.88;3.30;;;21.60;99.90;;;;;;5113880;28;20039;-70
2022/06/24 06:13:05;;;;;;;4.75;2.97;;;20.80;99.90;;;;;;5113702;28;20035;-70
2022/06/24 06:15:30;;;;;;;4.47;3.22;;;20.70;99.90;;;;;;5114565;28;20031;-69
2022/06/24 06:17:56;;;;;;;5.07;3.13;;;20.30;99.90;;;;;;5112263;28;20128;-69
2022/06/24 06:20:22;;;;;;;3.90;2.88;;;21.20;99.90;;;;;;5095462;28;20031;-70
2022/06/24 06:22:47;;;;;;;5.47;2.97;;;21.00;99.90;;;;;;5112669;28;20032;-70
2022/06/24 06:25:15;;;;;;;5.85;3.20;;;20.50;99.90;;;;;;5114449;28;20502;-69
2022/06/24 06:27:41;;;;;;;5.50;3.08;;;21.20;99.90;;;;;;5113058;28;20036;-69
2022/06/24 06:30:07;;;;;;;6.55;3.08;;;20.10;99.90;;;;;;5095494;28;20396;-69
2022/06/24 06:32:33;;;;;;;6.70;3.22;;;20.20;99.90;;;;;;5114586;28;20101;-69
2022/06/24 06:34:59;;;;;;;8.25;4.38;;;18.20;99.90;;;;;;5114231;28;20067;-69
2022/06/24 06:37:24;;;;;;;7.45;4.05;;;20.30;99.90;;;;;;5114426;28;20044;-69
2022/06/24 06:39:50;;;;;;;10.63;3.90;;;20.30;99.90;;;;;;5113606;28;20107;-69
2022/06/24 06:42:16;;;;;;;7.70;3.20;;;21.40;99.90;;;;;;5114238;28;20043;-69
2022/06/24 06:44:41;;;;;;;9.50;3.10;;;21.30;99.90;;;;;;5112809;28;20107;-69
2022/06/24 06:47:07;;;;;;;9.45;3.70;;;21.00;99.90;;;;;;5095751;28;20036;-69
2022/06/24 06:49:33;;;;;;;7.47;2.75;;;20.30;99.90;;;;;;5113171;28;20412;-69
2022/06/24 06:52:02;;;;;;;8.85;3.10;;;22.10;99.90;;;;;;5113720;28;20044;-69
2022/06/24 06:54:30;;;;;;;6.03;2.72;;;20.30;99.90;;;;;;5113004;28;20039;-71
2022/06/24 06:56:56;;;;;;;7.93;2.63;;;20.30;99.90;;;;;;5097898;28;20035;-69
2022/06/24 06:59:22;;;;;;;8.23;3.05;;;20.50;99.90;;;;;;5097934;28;20043;-69
2022/06/24 07:01:48;;;;;;;8.27;2.35;;;20.30;99.90;;;;;;5114448;28;20043;-69
2022/06/24 07:04:14;;;;;;;7.57;2.75;;;22.10;99.90;;;;;;5112535;28;20074;-69
2022/06/24 07:06:40;;;;;;;8.43;2.65;;;20.20;99.90;;;;;;5112635;28;20047;-69
2022/06/24 07:09:06;;;;;;;5.28;2.53;;;20.30;99.90;;;;;;5114983;28;20047;-69
2022/06/24 07:11:31;;;;;;;4.68;2.88;;;20.10;99.90;;;;;;5114029;28;20039;-71
2022/06/24 07:13:57;;;;;;;9.10;2.92;;;20.40;99.90;;;;;;5097295;28;20040;-69
2022/06/24 07:16:22;;;;;;;6.88;2.88;;;20.70;99.90;;;;;;5114136;28;20035;-69
2022/06/24 07:18:48;;;;;;;5.88;3.13;;;20.30;99.90;;;;;;5112084;28;20028;-69
2022/06/24 07:21:14;;;;;;;5.38;2.88;;;20.60;99.90;;;;;;5111323;28;20044;-69
2022/06/24 07:23:40;;;;;;;8.25;3.30;;;20.00;99.90;;;;;;5093387;28;20032;-69
2022/06/24 07:26:06;;;;;;;6.15;3.15;;;21.70;99.90;;;;;;5112172;28;20035;-69
2022/06/24 07:28:36;;;;;;;6.53;3.25;;;20.80;99.90;;;;;;5113120;28;20036;-69
2022/06/24 07:31:12;;;;;;;8.07;4.25;;;20.60;99.90;;;;;;5112461;27;20564;-69
2022/06/24 07:33:38;;;;;;;6.75;4.63;;;20.30;99.90;;;;;;5113552;28;20070;-69
2022/06/24 07:36:03;;;;;;;4.82;3.50;;;20.20;99.90;;;;;;5113035;28;20067;-69
2022/06/24 07:38:29;;;;;;;5.40;3.25;;;20.30;99.90;;;;;;5111727;28;20118;-70
2022/06/24 07:40:55;;;;;;;9.57;3.72;;;20.50;99.90;;;;;;5110969;28;20466;-69
2022/06/24 07:43:21;;;;;;;4.95;3.40;;;21.10;99.90;;;;;;5111611;28;20047;-70
2022/06/24 07:45:47;;;;;;;8.70;5.05;;;20.90;99.90;;;;;;5111828;28;20036;-70
2022/06/24 07:48:12;;;;;;;7.20;4.00;;;21.20;99.90;;;;;;5111695;28;20127;-70
2022/06/24 07:50:38;;;;;;;6.50;3.33;;;20.50;99.90;;;;;;5110592;28;20043;-70
2022/06/24 07:53:04;;;;;;;4.53;3.15;;;20.70;99.90;;;;;;5112859;28;20034;-70
2022/06/24 07:58:13;;;;;;;10.30;4.03;;;20.40;99.90;;;;;;5112574;28;20051;-70
2022/06/24 08:00:39;;;;;;;7.50;4.15;;;21.90;99.90;;;;;;5112079;28;20035;-70
2022/06/24 08:03:05;;;;;;;6.85;3.55;;;20.50;99.90;;;;;;5111413;28;20067;-70
2022/06/24 08:05:31;;;;;;;3.78;3.47;;;20.30;99.90;;;;;;5112797;28;20040;-71
2022/06/24 08:07:56;;;;;;;6.85;4.07;;;22.20;99.90;;;;;;5111201;28;20036;-71
2022/06/24 08:10:22;;;;;;;6.32;3.70;;;20.50;99.90;;;;;;5110479;28;20047;-70
2022/06/24 08:12:48;;;;;;;10.07;4.38;;;20.50;99.90;;;;;;5111338;28;20080;-70
2022/06/24 08:15:16;;;;;;;7.45;4.25;;;21.70;99.90;;;;;;5111287;28;20035;-70
2022/06/24 08:17:42;;;;;;;6.55;3.95;;;20.60;99.90;;;;;;5094202;28;20168;-70
2022/06/24 08:20:08;;;;;;;9.23;4.05;;;20.60;99.90;;;;;;5111839;28;20073;-71
2022/06/24 08:22:34;;;;;;;7.85;3.70;;;20.40;99.90;;;;;;5110702;28;20496;-70
2022/06/24 08:25:01;;;;;;;4.45;3.47;;;21.50;99.90;;;;;;5111234;28;20042;-70
2022/06/24 08:27:26;;;;;;;7.15;4.00;;;20.90;99.90;;;;;;5112164;28;20413;-70
2022/06/24 08:29:52;;;;;;;7.28;3.53;;;20.70;99.90;;;;;;5111705;28;20031;-70
2022/06/24 08:32:18;;;;;;;5.30;3.88;;;21.00;99.90;;;;;;5093909;28;20091;-70
2022/06/24 08:34:44;;;;;;;5.82;4.00;;;20.70;99.90;;;;;;5112272;28;20119;-70
2022/06/24 08:37:09;;;;;;;7.90;4.30;;;20.80;99.90;;;;;;5093859;28;20039;-70
2022/06/24 08:39:35;;;;;;;7.90;4.50;;;20.90;99.90;;;;;;5110322;28;20032;-70
2022/06/24 08:42:03;;;;;;;10.02;4.50;;;20.70;99.90;;;;;;5114212;28;20126;-70
2022/06/24 08:44:28;;;;;;;6.97;4.60;;;20.60;99.90;;;;;;5098495;28;20489;-71
2022/06/24 08:46:54;;;;;;;7.78;4.65;;;22.10;99.90;;;;;;5116469;28;20036;-70
2022/06/24 08:49:20;;;;;;;8.73;4.97;;;20.60;99.90;;;;;;5114422;28;20032;-70
2022/06/24 08:51:47;;;;;;;16.85;5.40;;;20.30;99.90;;;;;;5114527;28;20039;-70
2022/06/24 08:54:16;;;;;;;6.03;4.85;;;20.20;99.90;;;;;;5116569;28;20047;-70
2022/06/24 08:56:42;;;;;;;8.07;5.10;;;20.50;99.90;;;;;;5114699;28;20048;-70
2022/06/24 08:59:07;;;;;;;6.13;5.20;;;20.70;99.90;;;;;;5097082;28;20035;-70
2022/06/24 09:01:39;;;;;;;9.75;6.00;;;20.40;99.90;;;;;;5115047;28;20047;-70
2022/06/24 09:04:04;;;;;;;9.40;5.65;;;20.30;99.90;;;;;;5097722;28;20040;-70
2022/06/24 09:06:38;;;;;;;8.52;6.60;;;20.10;99.90;;;;;;5114606;28;20412;-70
2022/06/24 09:09:04;;;;;;;10.30;7.32;;;20.70;99.90;;;;;;5114602;28;20268;-70
2022/06/24 09:11:38;;;;;;;9.80;6.68;;;20.40;99.90;;;;;;5114565;28;20118;-70
2022/06/24 09:14:03;;;;;;;12.90;6.88;;;20.30;99.90;;;;;;5114822;28;20409;-70
2022/06/24 09:16:29;;;;;;;8.95;6.45;;;20.10;99.90;;;;;;5097477;28;20035;-71
2022/06/24 09:19:00;;;;;;;12.07;6.80;;;20.40;99.90;;;;;;5114565;28;20035;-71
2022/06/24 09:21:34;;;;;;;10.88;7.53;;;20.20;99.90;;;;;;5115757;28;20039;-70
2022/06/24 09:24:02;;;;;;;9.32;6.65;;;21.20;99.90;;;;;;5113097;28;20049;-71
2022/06/24 09:26:38;;;;;;;6.80;5.47;;;19.80;99.90;;;;;;5097192;28;20045;-71
2022/06/24 09:29:06;;;;;;;9.68;5.00;;;19.80;99.90;;;;;;5113797;28;20088;-71
2022/06/24 09:31:32;;;;;;;7.35;5.25;;;20.60;99.90;;;;;;5114336;28;20096;-71
2022/06/24 09:34:18;;;;;;;7.25;4.78;;;19.90;99.90;;;;;;5114530;28;20035;-71
2022/06/24 09:36:46;;;;;;;12.55;4.20;;;20.40;99.90;;;;;;5113715;28;20048;-71
2022/06/24 09:39:13;;;;;;;9.63;4.53;;;19.60;99.90;;;;;;5113219;28;20062;-71
2022/06/24 09:41:45;;;;;;;10.18;5.07;;;20.60;99.90;;;;;;5113999;28;20401;-70
2022/06/24 09:44:11;;;;;;;8.10;3.70;;;19.50;99.90;;;;;;5115227;28;20412;-70
2022/06/24 09:46:37;;;;;;;10.60;3.53;;;20.40;99.90;;;;;;5115286;28;20039;-70
2022/06/24 09:49:09;;;;;;;7.88;3.60;;;20.00;99.90;;;;;;5114624;28;20046;-70
2022/06/24 09:51:35;;;;;;;9.32;3.70;;;19.00;99.90;;;;;;5113347;28;20040;-71
2022/06/24 09:54:01;;;;;;;4.88;3.45;;;18.80;99.90;;;;;;5096419;28;20509;-70
2022/06/24 09:56:27;;;;;;;8.52;3.97;;;18.70;99.90;;;;;;5113806;28;20032;-70
2022/06/24 10:01:41;;;;;;;8.63;2.95;;;18.90;99.90;;;;;;5114927;28;20446;-71
2022/06/24 10:04:12;;;;;;;3.38;2.60;;;18.80;99.90;;;;;;5114978;27;20045;-71
2022/06/24 10:06:38;;;;;;;4.03;2.75;;;20.10;99.90;;;;;;5114971;28;20038;-71
2022/06/24 10:09:05;;;;;;;5.50;2.95;;;18.90;99.90;;;;;;5113132;28;20412;-70
2022/06/24 10:11:36;;;;;;;3.80;2.90;;;18.60;99.90;;;;;;5113280;28;20089;-71
2022/06/24 10:14:03;;;;;;;3.75;3.00;;;19.70;99.90;;;;;;5113395;28;20046;-71
2022/06/24 10:16:29;;;;;;;5.80;2.67;;;19.00;99.90;;;;;;5113233;28;20173;-71
2022/06/24 10:18:56;;;;;;;2.97;2.60;;;19.20;99.90;;;;;;5112837;28;20038;-71
2022/06/24 10:21:23;;;;;;;7.00;3.10;;;19.20;99.90;;;;;;5095861;28;20135;-72
2022/06/24 10:23:51;;;;;;;5.22;3.03;;;19.40;99.90;;;;;;5112245;28;20040;-71
2022/06/24 10:26:28;;;;;;;5.80;3.10;;;19.40;99.90;;;;;;5096180;28;20084;-71
2022/06/24 10:29:00;;;;;;;5.13;3.30;;;19.00;99.90;;;;;;5113864;28;20075;-70
2022/06/24 10:31:44;;;;;;;4.53;2.88;;;19.50;99.90;;;;;;5095971;28;20503;-71
2022/06/24 10:34:22;;;;;;;4.80;3.08;;;19.30;99.90;;;;;;5113157;28;20384;-71
2022/06/24 10:36:49;;;;;;;4.38;3.03;;;19.20;99.90;;;;;;5095952;28;20099;-71
2022/06/24 10:39:17;;;;;;;4.55;3.20;;;20.20;99.90;;;;;;5094996;28;20051;-72
2022/06/24 10:41:43;;;;;;;4.85;2.63;;;20.60;99.90;;;;;;5112863;28;20047;-71
2022/06/24 10:44:23;;;;;;;4.18;3.22;;;19.40;99.90;;;;;;5114259;28;20043;-71
2022/06/24 10:47:08;;;;;;;5.57;3.33;;;19.90;99.90;;;;;;5114083;28;20043;-71
2022/06/24 10:52:48;;;;;;;4.93;3.20;;;19.40;99.90;;;;;;5113692;28;20493;-71
2022/06/24 10:55:17;;;;;;;5.10;3.33;;;19.40;99.90;;;;;;5112574;28;20075;-70
2022/06/24 10:57:49;;;;;;;5.00;3.70;;;19.50;99.90;;;;;;5112563;28;20047;-71
2022/06/24 11:00:23;;;;;;;6.18;4.00;;;19.40;99.90;;;;;;5111720;28;20038;-71
2022/06/24 11:03:12;;;;;;;5.43;3.25;;;19.70;99.90;;;;;;5112591;28;20084;-71
2022/06/24 11:05:44;;;;;;;5.78;3.88;;;19.60;99.90;;;;;;5110584;28;20127;-73
2022/06/24 11:08:22;;;;;;;5.70;3.60;;;20.40;99.90;;;;;;5095203;28;20509;-70
2022/06/24 11:10:49;;;;;;;4.65;3.50;;;20.20;99.90;;;;;;5111437;28;20039;-70
2022/06/24 11:13:15;;;;;;;5.00;3.72;;;21.60;99.90;;;;;;5112122;28;20039;-71
2022/06/24 11:15:48;;;;;;;7.88;4.38;;;19.90;99.90;;;;;;5113729;28;20031;-71
2022/06/24 11:18:25;;;;;;;5.10;3.78;;;21.40;99.90;;;;;;5095147;28;20084;-70
2022/06/24 11:20:51;;;;;;;5.00;4.38;;;20.00;99.90;;;;;;5112736;28;20066;-69
2022/06/24 11:23:19;;;;;;;6.40;4.30;;;21.10;99.90;;;;;;5094397;28;20537;-69
2022/06/24 11:25:52;;;;;;;5.65;4.10;;;21.50;99.90;;;;;;5113485;28;20035;-70
2022/06/24 11:28:28;;;;;;;5.72;4.43;;;20.00;99.90;;;;;;5095213;28;20486;-69
2022/06/24 11:30:56;;;;;;;4.72;3.90;;;20.20;99.90;;;;;;5111316;28;20131;-71
2022/06/24 11:33:22;;;;;;;6.25;4.65;;;20.20;99.90;;;;;;5112128;28;20089;-70
2022/06/24 11:35:49;;;;;;;6.15;4.15;;;20.80;99.90;;;;;;5112049;28;20023;-70
2022/06/24 11:38:19;;;;;;;6.78;4.65;;;20.40;99.90;;;;;;5117433;28;20085;-70
2022/06/24 11:40:45;;;;;;;7.70;5.22;;;20.20;99.90;;;;;;5101997;28;20035;-71
2022/06/24 11:43:13;;;;;;;8.77;5.38;;;20.50;99.90;;;;;;5119804;28;20035;-70
2022/06/24 11:45:40;;;;;;;7.25;5.53;;;21.50;99.90;;;;;;5103878;28;20039;-70
2022/06/24 11:48:07;;;;;;;7.07;5.53;;;20.50;99.90;;;;;;5099500;28;20100;-70
2022/06/24 11:50:34;;;;;;;9.30;6.10;;;21.00;99.90;;;;;;5116412;28;20079;-71
2022/06/24 11:53:00;;;;;;;10.38;5.65;;;20.80;99.90;;;;;;5113982;28;20523;-70
2022/06/24 11:55:34;;;;;;;8.93;5.85;;;20.90;99.90;;;;;;5112973;28;20044;-70
2022/06/24 11:58:02;;;;;;;8.57;6.60;;;21.70;99.90;;;;;;5120502;22;20055;-70
2022/06/24 12:00:36;;;;;;;11.15;6.85;;;22.90;99.90;;;;;;5073067;28;20119;-71
2022/06/24 12:03:05;;;;;;;8.23;6.32;;;21.10;99.90;;;;;;5091833;28;20119;-70
2022/06/24 12:05:32;;;;;;;9.93;6.40;;;21.10;99.90;;;;;;5092117;28;20093;-70
2022/06/24 12:08:00;;;;;;;8.75;6.57;;;22.60;99.90;;;;;;5073656;28;20036;-70
2022/06/24 12:10:26;;;;;;;10.40;7.35;;;21.30;99.90;;;;;;5072955;28;20075;-70
2022/06/24 12:12:57;;;;;;;10.40;9.30;;;21.40;99.90;;;;;;5073668;28;20067;-70
2022/06/24 12:15:37;;;;;;;11.45;9.15;;;22.40;99.90;;;;;;5090870;28;20040;-70
2022/06/24 12:18:12;;;;;;;23.00;17.73;;;21.10;99.90;;;;;;5073709;28;20543;-70
2022/06/24 12:20:38;;;;;;;24.17;19.92;;;21.40;99.90;;;;;;5091116;28;20040;-70
2022/06/24 12:23:14;;;;;;;21.35;18.60;;;21.40;99.90;;;;;;5072578;28;20383;-70
2022/06/24 12:25:42;;;;;;;18.67;16.73;;;21.60;99.90;;;;;;5073481;28;20044;-70
2022/06/24 12:28:17;;;;;;;17.33;14.95;;;22.30;99.90;;;;;;5073567;28;20043;-71
2022/06/24 12:30:54;;;;;;;17.05;14.75;;;21.70;99.90;;;;;;5072579;28;20081;-70
2022/06/24 12:33:20;;;;;;;16.65;12.85;;;22.80;99.90;;;;;;5073477;28;20028;-70
2022/06/24 12:35:47;;;;;;;21.60;15.00;;;21.70;99.90;;;;;;5073768;28;20090;-71
2022/06/24 12:38:13;;;;;;;14.90;12.40;;;23.00;99.90;;;;;;5091418;28;20112;-70
2022/06/24 12:40:40;;;;;;;30.63;15.40;;;22.10;99.90;;;;;;5072623;28;20123;-70
2022/06/24 12:43:13;;;;;;;16.10;13.98;;;21.60;99.90;;;;;;5073342;28;20040;-70
2022/06/24 12:45:41;;;;;;;16.27;14.05;;;21.70;99.90;;;;;;5056752;28;20044;-70
2022/06/24 12:50:59;;;;;;;16.60;13.35;;;21.60;99.90;;;;;;5072429;28;20058;-70
2022/06/24 12:53:25;;;;;;;16.15;12.88;;;21.60;99.90;;;;;;5073253;28;20067;-70
2022/06/24 12:55:52;;;;;;;16.42;13.20;;;22.20;99.90;;;;;;5091235;28;20071;-70
2022/06/24 12:58:18;;;;;;;16.40;13.73;;;22.00;99.90;;;;;;5073029;28;20051;-70
2022/06/24 13:00:44;;;;;;;15.45;11.52;;;23.10;99.90;;;;;;5090777;28;20086;-71
2022/06/24 13:03:09;;;;;;;12.85;10.55;;;23.30;99.90;;;;;;5073684;28;20032;-70
2022/06/24 13:05:35;;;;;;;13.82;9.40;;;22.80;99.90;;;;;;5073070;28;20040;-70
2022/06/24 13:08:01;;;;;;;14.40;10.30;;;22.20;99.90;;;;;;5091183;28;20077;-70
2022/06/24 13:10:26;;;;;;;14.68;10.35;;;22.20;99.90;;;;;;5090429;28;20039;-70